Time;durP1;ratioP1;P1;durP2;ratioP2;P2;SDS_P1;SDS_P2;PMS_P1;PMS_P2;Temp;Humidity;BMP_temperature;BMP_pressure;BME280_temperature;BME280_humidity;BME280_pressure;Samples;Min_cycle;Max_cycle;Signal;HPM_P1;HPM_P2
2020/12/22 00:04:39;;;;;;;16.02;7.20;;;;;;;3.76;100.00;100706.91;4999199;28;20049;-91
2020/12/22 00:07:05;;;;;;;14.05;7.25;;;;;;;3.73;100.00;100705.34;4998152;28;20433;-90
2020/12/22 00:09:32;;;;;;;16.27;6.63;;;;;;;3.71;100.00;100707.22;4997584;28;20405;-90
2020/12/22 00:11:58;;;;;;;16.38;7.22;;;;;;;3.69;100.00;100705.66;4997225;28;20389;-90
2020/12/22 00:14:24;;;;;;;12.45;6.43;;;;;;;3.66;100.00;100711.03;4997565;28;20378;-91
2020/12/22 00:16:51;;;;;;;19.08;6.20;;;;;;;3.63;100.00;100704.28;4996971;28;20469;-90
2020/12/22 00:19:16;;;;;;;17.35;6.82;;;;;;;3.61;100.00;100701.75;4997715;28;20431;-90
2020/12/22 00:21:42;;;;;;;13.00;6.80;;;;;;;3.58;100.00;100701.97;4997451;28;20049;-90
2020/12/22 00:24:08;;;;;;;15.93;6.63;;;;;;;3.57;100.00;100707.25;4997313;28;20030;-90
2020/12/22 00:26:35;;;;;;;17.75;7.47;;;;;;;3.55;100.00;100704.75;4997057;28;20384;-90
2020/12/22 00:29:02;;;;;;;16.20;7.10;;;;;;;3.53;100.00;100714.38;4997500;28;20370;-91
2020/12/22 00:31:28;;;;;;;15.70;6.75;;;;;;;3.51;100.00;100711.06;4996905;28;20030;-91
2020/12/22 00:33:53;;;;;;;13.45;7.10;;;;;;;3.49;100.00;100712.91;4996894;28;20426;-91
2020/12/22 00:36:19;;;;;;;15.95;7.13;;;;;;;3.47;100.00;100708.72;4996814;28;20066;-89
2020/12/22 00:38:46;;;;;;;13.23;7.57;;;;;;;3.43;100.00;100718.47;4996291;28;20355;-90
2020/12/22 00:41:14;;;;;;;13.80;7.07;;;;;;;3.42;100.00;100727.16;4996253;28;20505;-90
2020/12/22 00:43:42;;;;;;;15.05;6.80;;;;;;;3.41;100.00;100728.09;4996633;28;20457;-90
2020/12/22 00:46:08;;;;;;;19.15;9.07;;;;;;;3.40;100.00;100736.81;4995639;28;20042;-89
2020/12/22 00:48:34;;;;;;;17.40;6.97;;;;;;;3.39;100.00;100748.09;4996030;28;20445;-90
2020/12/22 00:51:00;;;;;;;17.40;7.78;;;;;;;3.40;100.00;100752.38;4996252;28;20050;-89
2020/12/22 00:53:26;;;;;;;17.25;7.45;;;;;;;3.37;100.00;100755.16;4996147;28;20054;-89
2020/12/22 00:55:52;;;;;;;15.27;7.63;;;;;;;3.36;100.00;100761.25;4996323;28;20489;-90
2020/12/22 00:58:18;;;;;;;17.27;8.15;;;;;;;3.35;100.00;100766.53;4996933;28;20426;-89
2020/12/22 01:04:07;;;;;;;16.25;7.22;;;;;;;3.30;100.00;100788.38;4997610;28;20044;-89
2020/12/22 01:06:40;;;;;;;17.60;7.18;;;;;;;3.28;100.00;100787.63;4996649;28;20385;-88
2020/12/22 01:09:07;;;;;;;12.13;6.72;;;;;;;3.26;100.00;100796.44;4996442;28;20488;-88
2020/12/22 01:11:38;;;;;;;12.52;6.38;;;;;;;3.23;100.00;100794.88;4996560;28;20030;-90
2020/12/22 01:14:08;;;;;;;13.02;6.53;;;;;;;3.21;100.00;100788.94;4998157;28;20377;-90
2020/12/22 01:16:34;;;;;;;15.55;7.18;;;;;;;3.18;100.00;100776.16;4996953;28;20042;-90
2020/12/22 01:19:01;;;;;;;14.65;6.75;;;;;;;3.17;100.00;100777.09;4995890;28;20421;-90
2020/12/22 01:21:27;;;;;;;12.48;6.05;;;;;;;3.16;100.00;100784.97;4995957;28;20026;-89
2020/12/22 01:23:53;;;;;;;14.82;6.43;;;;;;;3.14;100.00;100791.97;4995793;28;20493;-90
2020/12/22 01:26:25;;;;;;;17.50;7.28;;;;;;;3.12;100.00;100799.00;4995517;28;20023;-90
2020/12/22 01:28:52;;;;;;;13.25;6.90;;;;;;;3.09;100.00;100794.00;4995751;28;20453;-89
2020/12/22 01:31:27;;;;;;;16.00;7.53;;;;;;;3.09;100.00;100804.38;4995711;28;20524;-89
2020/12/22 01:33:54;;;;;;;13.80;7.15;;;;;;;3.08;100.00;100813.06;4995735;28;20042;-89
2020/12/22 01:36:22;;;;;;;16.92;7.35;;;;;;;3.06;100.00;100810.56;4995723;28;20500;-90
2020/12/22 01:38:48;;;;;;;16.70;6.68;;;;;;;3.06;100.00;100814.94;4995540;28;20462;-90
2020/12/22 01:41:15;;;;;;;13.63;5.88;;;;;;;3.04;100.00;100816.78;4994817;28;20477;-91
2020/12/22 01:43:42;;;;;;;12.63;5.82;;;;;;;3.01;100.00;100817.78;4994761;28;20375;-90
2020/12/22 01:46:09;;;;;;;15.68;6.85;;;;;;;2.99;100.00;100827.38;4995109;28;20469;-90
2020/12/22 01:48:36;;;;;;;13.02;5.93;;;;;;;2.99;100.00;100833.41;4994686;28;20429;-90
2020/12/22 01:51:04;;;;;;;18.80;8.90;;;;;;;2.98;100.00;100836.91;4994434;28;20458;-88
2020/12/22 01:53:30;;;;;;;27.15;15.27;;;;;;;2.98;100.00;100841.25;4994841;28;20433;-87
2020/12/22 01:55:56;;;;;;;31.95;20.40;;;;;;;2.97;100.00;100842.19;4994930;28;20458;-90
2020/12/22 01:58:21;;;;;;;33.90;21.75;;;;;;;2.96;100.00;100836.19;4994736;28;20033;-90
2020/12/22 02:00:48;;;;;;;26.73;14.05;;;;;;;2.97;100.00;100849.97;4994681;28;20496;-89
2020/12/22 02:03:15;;;;;;;17.48;9.88;;;;;;;2.97;100.00;100849.97;4995486;28;20030;-90
2020/12/22 02:05:41;;;;;;;16.50;7.45;;;;;;;2.96;100.00;100858.66;4994513;28;20362;-89
2020/12/22 02:08:09;;;;;;;12.95;6.20;;;;;;;2.92;100.00;100857.19;4994438;28;20478;-90
2020/12/22 02:10:49;;;;;;;12.15;5.85;;;;;;;2.88;100.00;100856.53;4994527;28;20367;-90
2020/12/22 02:13:14;;;;;;;14.60;5.57;;;;;;;2.88;100.00;100866.06;4994421;28;20473;-90
2020/12/22 02:15:40;;;;;;;17.20;5.40;;;;;;;2.86;100.00;100879.09;4994174;28;20057;-90
2020/12/22 02:18:06;;;;;;;13.68;4.75;;;;;;;2.85;100.00;100884.38;4994623;28;20389;-90
2020/12/22 02:20:32;;;;;;;17.33;4.45;;;;;;;2.82;100.00;100898.31;4994587;28;20430;-89
2020/12/22 02:22:58;;;;;;;12.25;4.03;;;;;;;2.81;100.00;100900.97;4994554;28;20069;-90
2020/12/22 02:25:25;;;;;;;12.18;4.63;;;;;;;2.79;100.00;100903.66;4994342;28;20429;-89
2020/12/22 02:27:51;;;;;;;9.50;4.20;;;;;;;2.80;100.00;100917.44;4994818;28;20450;-90
2020/12/22 02:30:17;;;;;;;10.88;4.05;;;;;;;2.78;100.00;100925.31;4995582;28;20054;-90
2020/12/22 02:32:43;;;;;;;8.82;4.20;;;;;;;2.76;100.00;100927.16;4994139;28;20478;-90
2020/12/22 02:35:09;;;;;;;12.13;4.13;;;;;;;2.77;100.00;100931.41;4994185;28;20062;-90
2020/12/22 02:37:35;;;;;;;10.50;3.78;;;;;;;2.76;100.00;100940.09;4994428;28;20027;-90
2020/12/22 02:40:01;;;;;;;9.32;3.97;;;;;;;2.75;100.00;100935.84;4995215;28;20030;-90
2020/12/22 02:42:27;;;;;;;10.07;3.78;;;;;;;2.72;100.00;100936.03;4994203;28;20563;-90
2020/12/22 02:44:53;;;;;;;12.45;4.55;;;;;;;2.72;100.00;100935.19;4994021;28;20066;-92
2020/12/22 02:47:19;;;;;;;11.13;4.43;;;;;;;2.70;100.00;100937.84;4994140;28;20481;-90
2020/12/22 02:49:46;;;;;;;11.77;4.13;;;;;;;2.69;100.00;100938.78;4993915;28;20466;-89
2020/12/22 02:52:12;;;;;;;16.95;4.32;;;;;;;2.68;100.00;100944.84;4993863;28;20488;-91
2020/12/22 02:54:38;;;;;;;13.63;4.05;;;;;;;2.67;100.00;100945.78;4993985;28;20034;-90
2020/12/22 02:57:04;;;;;;;12.00;4.55;;;;;;;2.66;100.00;100936.34;4994238;28;20378;-89
2020/12/22 02:59:30;;;;;;;12.13;3.65;;;;;;;2.65;100.00;100934.66;4993919;28;20033;-90
2020/12/22 03:01:57;;;;;;;10.40;4.00;;;;;;;2.62;100.00;100943.44;4993940;28;20382;-89
2020/12/22 03:07:45;;;;;;;11.23;3.63;;;;;;;2.59;100.00;100951.38;4998376;28;20040;-90
2020/12/22 03:10:13;;;;;;;9.98;3.42;;;;;;;2.58;100.00;100960.06;4999313;28;20089;-89
2020/12/22 03:12:40;;;;;;;9.88;3.35;;;;;;;2.57;100.00;100958.41;4997356;28;20411;-90
2020/12/22 03:18:28;;;;;;;8.20;3.15;;;;;;;2.57;100.00;100970.53;4997095;28;20134;-90
2020/12/22 03:20:55;;;;;;;11.68;2.90;;;;;;;2.58;100.00;100969.59;4997698;28;20477;-89
2020/12/22 03:23:21;;;;;;;9.13;2.80;;;;;;;2.59;100.00;100971.28;4997017;28;20492;-90
2020/12/22 03:25:46;;;;;;;8.85;3.08;;;;;;;2.60;100.00;100978.13;4997581;28;20018;-90
2020/12/22 03:28:12;;;;;;;8.77;3.08;;;;;;;2.59;100.00;100981.63;4997131;28;20026;-90
2020/12/22 03:30:39;;;;;;;9.38;3.20;;;;;;;2.61;100.00;100984.97;4997185;28;20425;-90
2020/12/22 03:33:04;;;;;;;13.65;4.13;;;;;;;2.61;100.00;100984.97;4996929;28;20046;-89
2020/12/22 03:35:30;;;;;;;9.13;3.42;;;;;;;2.61;100.00;100984.97;4997110;28;20031;-90
2020/12/22 03:37:57;;;;;;;11.02;3.72;;;;;;;2.60;100.00;100986.72;4997096;28;20033;-90
2020/12/22 03:40:26;;;;;;;10.02;3.28;;;;;;;2.59;100.00;100976.44;4997273;28;20030;-90
2020/12/22 03:42:51;;;;;;;9.93;3.33;;;;;;;2.58;100.00;100978.19;4997172;28;20465;-90
2020/12/22 03:45:17;;;;;;;10.50;3.75;;;;;;;2.57;100.00;100970.53;4998274;28;20113;-90
2020/12/22 03:47:44;;;;;;;12.77;4.43;;;;;;;2.57;100.00;100973.09;4996559;28;20041;-90
2020/12/22 03:50:10;;;;;;;9.05;3.67;;;;;;;2.55;100.00;100970.59;4996799;28;20462;-90
2020/12/22 03:52:37;;;;;;;13.45;3.88;;;;;;;2.55;100.00;100980.13;4996373;28;20422;-90
2020/12/22 03:55:04;;;;;;;8.63;3.13;;;;;;;2.53;100.00;100985.38;4996892;28;20374;-89
2020/12/22 03:57:30;;;;;;;11.02;4.00;;;;;;;2.51;100.00;100987.19;4996834;28;20429;-90
2020/12/22 03:59:57;;;;;;;13.07;2.80;;;;;;;2.50;100.00;100988.13;4996946;28;20414;-90
2020/12/22 04:02:23;;;;;;;9.77;3.15;;;;;;;2.50;100.00;100989.88;4996950;28;20410;-90
2020/12/22 04:04:49;;;;;;;9.98;3.17;;;;;;;2.47;100.00;100982.28;4997214;28;20465;-89
2020/12/22 04:07:15;;;;;;;9.57;3.10;;;;;;;2.46;100.00;100999.56;5000934;28;20355;-90
2020/12/22 04:09:41;;;;;;;10.27;3.58;;;;;;;2.47;100.00;100992.63;4999498;28;20109;-90
2020/12/22 04:12:07;;;;;;;12.68;2.92;;;;;;;2.48;100.00;100992.53;4996279;28;20482;-90
2020/12/22 04:14:33;;;;;;;11.55;3.17;;;;;;;2.48;100.00;100989.13;4996460;28;20433;-90
2020/12/22 04:16:59;;;;;;;10.18;3.08;;;;;;;2.48;100.00;100986.53;4996572;28;20023;-90
2020/12/22 04:19:25;;;;;;;7.68;2.85;;;;;;;2.46;100.00;100985.78;4996108;28;20034;-90
2020/12/22 04:21:51;;;;;;;10.77;3.13;;;;;;;2.43;100.00;100988.53;4996003;28;20358;-90
2020/12/22 04:24:17;;;;;;;8.27;2.72;;;;;;;2.38;100.00;100994.81;4995950;28;20384;-90
2020/12/22 04:26:43;;;;;;;9.88;3.10;;;;;;;2.37;100.00;100989.72;4995894;28;20458;-90
2020/12/22 04:29:09;;;;;;;13.55;3.28;;;;;;;2.35;100.00;100994.94;4995925;28;20374;-90
2020/12/22 04:31:35;;;;;;;13.85;3.47;;;;;;;2.33;100.00;100994.19;4996081;28;20382;-90
2020/12/22 04:34:01;;;;;;;12.77;4.22;;;;;;;2.32;100.00;100989.09;4995791;28;20018;-90
2020/12/22 04:36:27;;;;;;;11.77;3.78;;;;;;;2.32;100.00;100995.09;4996763;28;20092;-91
2020/12/22 04:38:54;;;;;;;12.00;4.78;;;;;;;2.30;100.00;101001.28;4996320;28;20030;-90
2020/12/22 04:41:21;;;;;;;14.13;4.40;;;;;;;2.29;100.00;101002.22;5001077;28;20026;-92
2020/12/22 04:43:49;;;;;;;16.65;4.95;;;;;;;2.28;100.00;101010.88;5005702;28;20053;-90
2020/12/22 04:46:21;;;;;;;17.30;5.07;;;;;;;2.28;100.00;101014.31;5002875;28;20026;-90
2020/12/22 04:48:53;;;;;;;12.77;5.30;;;;;;;2.29;100.00;101020.31;4995748;28;20446;-90
2020/12/22 04:51:20;;;;;;;11.50;5.38;;;;;;;2.28;100.00;101011.72;4995451;28;20026;-90
2020/12/22 04:53:46;;;;;;;17.67;5.53;;;;;;;2.31;100.00;101019.31;4995475;28;20378;-89
2020/12/22 04:56:13;;;;;;;16.20;5.50;;;;;;;2.35;100.00;101020.81;4995970;28;20466;-90
2020/12/22 04:58:39;;;;;;;15.05;5.97;;;;;;;2.40;100.00;101028.38;4995526;28;20454;-90
2020/12/22 05:01:05;;;;;;;16.27;5.53;;;;;;;2.45;100.00;101035.91;4995725;28;20481;-89
2020/12/22 05:03:31;;;;;;;21.40;5.88;;;;;;;2.49;100.00;101033.06;4995246;28;20385;-90
2020/12/22 05:05:57;;;;;;;13.77;5.00;;;;;;;2.53;100.00;101041.53;4995437;28;20097;-90
2020/12/22 05:08:23;;;;;;;14.90;5.28;;;;;;;2.57;100.00;101040.44;4995361;28;20076;-89
2020/12/22 05:10:50;;;;;;;14.35;4.88;;;;;;;2.60;100.00;101040.28;4995111;28;20026;-89
2020/12/22 05:13:18;;;;;;;10.20;4.53;;;;;;;2.63;100.00;101046.13;4995296;28;20477;-89
2020/12/22 05:19:05;;;;;;;15.60;5.38;;;;;;;2.68;100.00;101053.63;4995153;28;20560;-89
2020/12/22 05:21:41;;;;;;;13.82;6.10;;;;;;;2.72;100.00;101056.91;4995752;28;20034;-90
2020/12/22 05:24:08;;;;;;;12.20;5.38;;;;;;;2.74;100.00;101061.09;4995151;28;20397;-89
2020/12/22 05:26:34;;;;;;;15.05;5.93;;;;;;;2.75;100.00;101057.59;4995222;28;20345;-90
2020/12/22 05:29:11;;;;;;;17.00;6.22;;;;;;;2.76;100.00;101059.25;4995154;28;20369;-90
2020/12/22 05:31:50;;;;;;;16.65;6.35;;;;;;;2.77;100.00;101054.91;4994612;28;20029;-90
2020/12/22 05:34:18;;;;;;;14.73;5.38;;;;;;;2.77;100.00;101053.16;4995483;28;20350;-91
2020/12/22 05:36:46;;;;;;;16.73;5.20;;;;;;;2.77;100.00;101068.69;4995268;28;20462;-89
2020/12/22 05:39:17;;;;;;;15.00;5.30;;;;;;;2.79;100.00;101071.19;4995736;28;20402;-90
2020/12/22 05:41:43;;;;;;;13.05;5.50;;;;;;;2.79;100.00;101072.03;4995304;28;20412;-90
2020/12/22 05:44:09;;;;;;;13.77;5.55;;;;;;;2.80;100.00;101067.69;4995058;28;20030;-90
2020/12/22 05:46:38;;;;;;;16.33;5.18;;;;;;;2.82;100.00;101068.44;4994912;28;20448;-90
2020/12/22 05:49:10;;;;;;;18.15;5.10;;;;;;;2.82;100.00;101073.63;4994886;28;20380;-90
2020/12/22 05:51:37;;;;;;;15.63;4.55;;;;;;;2.82;100.00;101086.56;4994929;28;20370;-90
2020/12/22 05:54:06;;;;;;;13.40;4.38;;;;;;;2.82;100.00;101077.06;4994965;28;20490;-90
2020/12/22 05:56:34;;;;;;;11.32;4.50;;;;;;;2.82;100.00;101084.00;4995459;28;20525;-89
2020/12/22 05:59:00;;;;;;;9.63;4.03;;;;;;;2.82;100.00;101087.41;4999784;28;20476;-90
2020/12/22 06:01:33;;;;;;;12.00;5.53;;;;;;;2.83;100.00;101101.19;4994655;28;20054;-90
2020/12/22 06:04:04;;;;;;;9.60;3.45;;;;;;;2.84;100.00;101095.97;4995319;28;20422;-90
2020/12/22 06:06:31;;;;;;;8.48;3.40;;;;;;;2.86;100.00;101109.69;4995117;28;20520;-90
2020/12/22 06:08:58;;;;;;;10.40;3.40;;;;;;;2.88;100.00;101115.59;4994539;28;20041;-91
2020/12/22 06:11:27;;;;;;;12.73;3.67;;;;;;;2.92;100.00;101121.47;4994433;28;20402;-90
2020/12/22 06:13:53;;;;;;;12.15;3.60;;;;;;;2.93;100.00;101118.78;4994808;28;20421;-89
2020/12/22 06:16:22;;;;;;;10.00;3.40;;;;;;;2.93;100.00;101126.56;4994921;28;20369;-90
2020/12/22 06:18:50;;;;;;;9.10;3.42;;;;;;;2.93;100.00;101121.38;4995240;28;20437;-90
2020/12/22 06:21:21;;;;;;;9.70;3.33;;;;;;;2.92;100.00;101116.28;4994394;28;20373;-90
2020/12/22 06:23:48;;;;;;;11.75;3.15;;;;;;;2.93;100.00;101123.13;4994337;28;20091;-89
2020/12/22 06:26:16;;;;;;;13.10;2.92;;;;;;;2.91;100.00;101122.38;4994277;28;20477;-90
2020/12/22 06:28:42;;;;;;;7.95;3.20;;;;;;;2.91;100.00;101124.97;4994704;28;20496;-90
2020/12/22 06:31:23;;;;;;;9.95;3.63;;;;;;;2.89;100.00;101119.88;4994793;28;20473;-89
2020/12/22 06:33:50;;;;;;;12.93;2.70;;;;;;;2.89;100.00;101122.47;4997655;28;20030;-90
2020/12/22 06:36:17;;;;;;;11.25;3.42;;;;;;;2.88;100.00;101113.03;4999523;28;20430;-90
2020/12/22 06:38:53;;;;;;;9.63;2.45;;;;;;;2.89;100.00;101114.69;4997695;28;20023;-89
2020/12/22 06:41:40;;;;;;;7.07;2.60;;;;;;;2.91;100.00;101114.59;4994371;28;20417;-91
2020/12/22 06:44:22;;;;;;;8.07;2.50;;;;;;;2.93;100.00;101105.00;4996984;28;20446;-91
2020/12/22 06:46:59;;;;;;;9.45;2.83;;;;;;;2.96;100.00;101104.81;4998666;28;20055;-90
2020/12/22 06:49:46;;;;;;;7.25;2.70;;;;;;;2.98;100.00;101110.75;4998288;28;20537;-91
2020/12/22 06:52:31;;;;;;;9.50;2.60;;;;;;;3.00;100.00;101107.19;4982478;28;20474;-90
2020/12/22 06:55:00;;;;;;;7.93;2.53;;;;;;;3.02;100.00;101106.28;4999398;28;20541;-90
2020/12/22 06:57:48;;;;;;;7.97;2.17;;;;;;;3.02;100.00;101107.09;4999240;28;20496;-90
2020/12/22 07:00:24;;;;;;;8.55;1.92;;;;;;;3.02;100.00;101096.75;5002599;28;20564;-90
2020/12/22 07:02:53;;;;;;;11.73;2.78;;;;;;;3.04;100.00;101094.91;4998265;28;20466;-90
2020/12/22 07:05:36;;;;;;;10.40;1.98;;;;;;;3.04;100.00;101094.91;4997852;28;20368;-90
2020/12/22 07:08:03;;;;;;;10.23;2.28;;;;;;;3.04;100.00;101094.91;4997972;28;20456;-89
2020/12/22 07:10:29;;;;;;;10.80;2.38;;;;;;;3.04;100.00;101096.66;4997528;28;20034;-91
2020/12/22 07:12:57;;;;;;;10.48;2.20;;;;;;;3.02;100.00;101096.75;4997941;28;20381;-91
2020/12/22 07:15:34;;;;;;;11.82;4.40;;;;;;;3.02;100.00;101098.50;4998410;28;20389;-90
2020/12/22 07:18:19;;;;;;;11.00;2.30;;;;;;;3.00;100.00;101094.22;4997477;28;20437;-90
2020/12/22 07:20:45;;;;;;;;;;;;;;;3.00;100.00;101096.81;4997861;28;20449;-90
2020/12/22 07:23:12;;;;;;;8.52;2.78;;;;;;;3.03;100.00;101092.38;5013822;28;20412;-90
2020/12/22 07:25:39;;;;;;;14.88;4.38;;;;;;;3.05;100.00;101103.50;4997403;28;20464;-89
2020/12/22 07:28:07;;;;;;;8.55;3.03;;;;;;;3.07;100.00;101106.84;4997277;28;20540;-90
2020/12/22 07:30:33;;;;;;;12.38;2.97;;;;;;;3.09;100.00;101115.38;4998959;28;20446;-90
2020/12/22 07:33:00;;;;;;;10.52;3.63;;;;;;;3.11;100.00;101116.13;4997110;28;20481;-91
2020/12/22 07:35:30;;;;;;;9.13;3.10;;;;;;;3.14;100.00;101110.78;4997424;28;20438;-91
2020/12/22 07:38:22;;;;;;;7.75;3.78;;;;;;;3.15;100.00;101115.88;4997221;28;20448;-90
2020/12/22 07:40:48;;;;;;;14.35;3.85;;;;;;;3.16;100.00;101122.75;4992401;28;20401;-89
2020/12/22 07:43:14;;;;;;;9.75;3.45;;;;;;;3.17;100.00;101121.00;4997523;28;20470;-90
2020/12/22 07:45:50;;;;;;;10.55;3.42;;;;;;;3.17;100.00;101111.47;4998152;28;20477;-91
2020/12/22 07:48:18;;;;;;;13.18;4.90;;;;;;;3.18;100.00;101125.25;4997739;28;20410;-90
2020/12/22 07:50:51;;;;;;;14.23;4.43;;;;;;;3.17;100.00;101129.59;4997304;28;20474;-90
2020/12/22 07:53:17;;;;;;;15.20;4.65;;;;;;;3.18;100.00;101127.84;4997174;28;20423;-90
2020/12/22 07:55:44;;;;;;;9.02;3.25;;;;;;;3.18;100.00;101135.63;4997062;28;20486;-91
2020/12/22 07:58:13;;;;;;;11.73;3.13;;;;;;;3.16;100.00;101138.31;4997387;28;20470;-91
2020/12/22 08:00:41;;;;;;;12.63;3.30;;;;;;;3.16;100.00;101137.47;4996845;28;20022;-90
2020/12/22 08:06:29;;;;;;;9.00;2.97;;;;;;;3.12;100.00;101147.13;4997759;28;20032;-91
2020/12/22 08:08:59;;;;;;;7.43;3.03;;;;;;;3.09;100.00;101142.13;4997272;28;20381;-90
2020/12/22 08:11:27;;;;;;;7.40;3.17;;;;;;;3.07;100.00;101138.78;4997105;28;20473;-91
2020/12/22 08:13:54;;;;;;;11.15;3.38;;;;;;;3.07;100.00;101143.13;4997567;28;20034;-91
2020/12/22 08:16:21;;;;;;;12.23;3.10;;;;;;;3.06;100.00;101149.25;4996725;28;20489;-90
2020/12/22 08:18:49;;;;;;;14.90;3.80;;;;;;;3.03;100.00;101149.41;4998320;28;20046;-91
2020/12/22 08:21:19;;;;;;;9.40;3.40;;;;;;;3.00;100.00;101147.81;4997954;28;20034;-91
2020/12/22 08:23:48;;;;;;;12.68;3.28;;;;;;;2.99;100.00;101156.47;4999259;28;20473;-92
2020/12/22 08:26:17;;;;;;;9.13;3.20;;;;;;;2.99;100.00;101167.69;4999193;28;20026;-89
2020/12/22 08:28:51;;;;;;;7.75;2.95;;;;;;;2.99;100.00;101166.84;4997488;28;20461;-91
2020/12/22 08:31:25;;;;;;;9.98;2.83;;;;;;;2.99;100.00;101178.03;4998510;28;20496;-89
2020/12/22 08:33:58;;;;;;;8.93;2.90;;;;;;;2.96;100.00;101170.44;4996717;28;20490;-90
2020/12/22 08:36:28;;;;;;;8.07;2.53;;;;;;;2.94;100.00;101176.63;5001000;28;20466;-90
2020/12/22 08:39:13;;;;;;;9.07;2.17;;;;;;;2.90;100.00;101181.13;4996865;28;20478;-88
2020/12/22 08:41:46;;;;;;;6.68;2.47;;;;;;;2.87;100.00;101183.88;4997537;28;20466;-92
2020/12/22 08:44:13;;;;;;;10.60;2.72;;;;;;;2.86;100.00;101190.00;4996593;28;20542;-92
2020/12/22 08:46:42;;;;;;;11.75;2.85;;;;;;;2.85;100.00;101192.66;4997299;28;20386;-88
2020/12/22 08:49:12;;;;;;;9.05;3.38;;;;;;;2.85;100.00;101196.09;4998731;28;20038;-88
2020/12/22 08:51:40;;;;;;;7.50;2.97;;;;;;;2.85;100.00;101195.25;4998604;28;20538;-88
2020/12/22 08:54:10;;;;;;;11.73;2.53;;;;;;;2.85;100.00;101196.09;4996743;28;20466;-88
2020/12/22 08:56:37;;;;;;;7.68;3.67;;;;;;;2.86;100.00;101192.56;4999619;28;20018;-87
2020/12/22 09:02:32;;;;;;;10.30;3.42;;;;;;;2.94;100.00;101197.34;4998089;28;20136;-87
2020/12/22 09:05:11;;;;;;;8.15;3.60;;;;;;;2.97;100.00;101210.16;4996276;28;20045;-88
2020/12/22 09:11:01;;;;;;;9.18;3.75;;;;;;;3.04;100.00;101218.47;4998391;28;20042;-89
2020/12/22 09:13:27;;;;;;;11.52;3.60;;;;;;;3.06;100.00;101216.63;4995685;28;20491;-88
2020/12/22 09:15:56;;;;;;;8.30;3.13;;;;;;;3.06;100.00;101220.03;4995756;28;20469;-89
2020/12/22 09:18:23;;;;;;;16.05;6.43;;;;;;;3.08;100.00;101227.75;4995372;28;20379;-89
2020/12/22 09:21:03;;;;;;;12.40;4.18;;;;;;;3.09;100.00;101230.25;4996986;28;20457;-89
2020/12/22 09:23:30;;;;;;;9.30;4.00;;;;;;;3.11;100.00;101225.81;4996519;28;20492;-89
2020/12/22 09:25:56;;;;;;;10.32;3.95;;;;;;;3.13;100.00;101226.56;4998474;28;20381;-90
2020/12/22 09:28:23;;;;;;;10.35;3.50;;;;;;;3.16;100.00;101221.25;4996639;28;20433;-92
2020/12/22 09:30:49;;;;;;;12.93;4.47;;;;;;;3.17;100.00;101215.16;4997654;28;20404;-89
2020/12/22 09:33:18;;;;;;;8.55;3.33;;;;;;;3.20;100.00;101212.38;4996924;28;20533;-89
2020/12/22 09:39:07;;;;;;;12.48;4.15;;;;;;;3.30;100.00;101229.13;5004569;28;20038;-91
2020/12/22 09:41:42;;;;;;;14.90;3.60;;;;;;;3.34;100.00;101227.22;5002659;28;20323;-90
2020/12/22 09:44:08;;;;;;;13.15;3.85;;;;;;;3.38;100.00;101238.25;5001447;28;20634;-92
2020/12/22 09:49:56;;;;;;;15.98;3.67;;;;;;;3.44;100.00;101256.06;5005027;28;20113;-91
2020/12/22 09:52:22;;;;;;;15.45;4.45;;;;;;;3.46;100.00;101262.84;5001446;28;20362;-90
2020/12/22 09:54:49;;;;;;;10.93;4.30;;;;;;;3.48;100.00;101268.81;5001124;28;20042;-90
2020/12/22 09:57:16;;;;;;;12.40;3.88;;;;;;;3.53;100.00;101274.59;4998334;28;20458;-90
2020/12/22 09:59:43;;;;;;;13.55;4.10;;;;;;;3.58;100.00;101271.75;4997661;28;20434;-90
2020/12/22 10:02:09;;;;;;;10.68;4.75;;;;;;;3.63;100.00;101276.69;4996679;28;20022;-89
2020/12/22 10:04:39;;;;;;;10.07;4.50;;;;;;;3.67;100.00;101278.22;4997467;28;20482;-90
2020/12/22 10:07:06;;;;;;;11.80;4.28;;;;;;;3.73;100.00;101276.13;4997748;28;20477;-89
2020/12/22 10:09:33;;;;;;;12.95;4.65;;;;;;;3.77;100.00;101289.75;4997096;28;20026;-89
2020/12/22 10:11:59;;;;;;;10.30;4.53;;;;;;;3.81;100.00;101292.13;4998218;28;20453;-90
2020/12/22 10:14:25;;;;;;;12.27;5.10;;;;;;;3.86;100.00;101289.28;4997865;28;20477;-90
2020/12/22 10:16:52;;;;;;;14.75;5.20;;;;;;;3.92;100.00;101304.50;4996525;28;20019;-91
2020/12/22 10:19:19;;;;;;;12.38;4.68;;;;;;;3.97;100.00;101307.72;5000019;28;20453;-91
2020/12/22 10:21:45;;;;;;;14.07;5.30;;;;;;;4.04;100.00;101313.38;4999910;28;20385;-90
2020/12/22 10:24:12;;;;;;;11.48;6.43;;;;;;;4.09;100.00;101304.41;5000776;28;20407;-91
2020/12/22 10:26:42;;;;;;;13.38;5.90;;;;;;;4.16;100.00;101299.75;5001400;28;20484;-91
2020/12/22 10:29:08;;;;;;;20.23;6.40;;;;;;;4.22;100.00;101297.63;5000348;28;20031;-92
2020/12/22 10:31:36;;;;;;;14.98;5.80;;;;;;;4.25;100.00;101303.56;5000169;28;20041;-92
2020/12/22 10:37:24;;;;;;;16.90;7.43;;;;;;;4.35;100.00;101296.97;5002358;28;20089;-90
2020/12/22 10:39:53;;;;;;;18.25;6.53;;;;;;;4.45;100.00;101306.75;5000052;28;20385;-91
2020/12/22 10:42:21;;;;;;;15.85;6.88;;;;;;;4.54;100.00;101299.34;4999588;28;20493;-90
2020/12/22 10:44:48;;;;;;;16.08;6.85;;;;;;;4.63;100.00;101298.84;4999638;28;20470;-91
2020/12/22 10:47:15;;;;;;;14.98;6.70;;;;;;;4.71;100.00;101299.22;5000403;28;20548;-90
2020/12/22 10:49:43;;;;;;;14.77;6.35;;;;;;;4.80;100.00;101294.34;4999459;28;20641;-90
2020/12/22 10:52:11;;;;;;;15.00;6.20;;;;;;;4.89;100.00;101305.13;4998879;28;20409;-91
2020/12/22 10:54:39;;;;;;;15.60;6.47;;;;;;;4.96;100.00;101309.06;5000947;28;20030;-90
2020/12/22 10:57:07;;;;;;;16.30;6.05;;;;;;;5.01;100.00;101310.44;5012332;28;20362;-91
2020/12/22 10:59:39;;;;;;;14.00;6.50;;;;;;;5.03;100.00;101300.78;5015406;28;20454;-90
2020/12/22 11:02:07;;;;;;;15.07;6.13;;;;;;;5.05;100.00;101292.94;5012504;28;20022;-90
2020/12/22 11:04:34;;;;;;;16.25;6.53;;;;;;;5.07;100.00;101288.47;5012789;28;20031;-91
2020/12/22 11:07:08;;;;;;;17.02;9.23;;;;;;;5.09;100.00;101284.00;5013500;28;20465;-91
2020/12/22 11:09:35;;;;;;;14.98;8.15;;;;;;;5.11;100.00;101284.75;5015747;28;20029;-89
2020/12/22 11:12:04;;;;;;;16.35;6.97;;;;;;;5.11;100.00;101275.19;5015438;28;20062;-90
2020/12/22 11:14:30;;;;;;;14.80;7.28;;;;;;;5.14;100.00;101279.38;5016086;28;20391;-91
2020/12/22 11:16:57;;;;;;;14.38;6.35;;;;;;;5.16;100.00;101267.09;5017289;28;20014;-89
2020/12/22 11:19:29;;;;;;;16.25;5.63;;;;;;;5.16;100.00;101266.25;5015662;28;20052;-90
2020/12/22 11:21:58;;;;;;;9.45;3.88;;;;;;;5.16;100.00;101271.47;5010440;28;20097;-90
2020/12/22 11:24:24;;;;;;;13.90;3.88;;;;;;;5.15;100.00;101267.19;5010098;28;20030;-91
2020/12/22 11:26:53;;;;;;;15.98;4.53;;;;;;;5.13;100.00;101264.69;5011231;28;20417;-87
2020/12/22 11:29:21;;;;;;;14.82;4.10;;;;;;;5.14;100.00;101257.72;5009499;28;20050;-89
2020/12/22 11:31:50;;;;;;;10.23;3.55;;;;;;;5.14;100.00;101253.34;5010949;28;20034;-90
2020/12/22 11:34:21;;;;;;;14.70;4.50;;;;;;;5.16;100.00;101256.69;5012053;28;20054;-89
2020/12/22 11:37:00;;;;;;;12.75;4.53;;;;;;;5.19;100.00;101255.66;5011847;28;20022;-88
2020/12/22 11:39:28;;;;;;;10.05;4.50;;;;;;;5.20;100.00;101247.78;5012034;28;20362;-90
2020/12/22 11:42:04;;;;;;;9.43;4.32;;;;;;;5.24;100.00;101241.47;5012257;28;20026;-89
2020/12/22 11:44:32;;;;;;;10.20;3.90;;;;;;;5.23;100.00;101233.78;5010222;28;20469;-90
2020/12/22 11:46:58;;;;;;;11.73;3.63;;;;;;;5.24;100.00;101231.06;5005405;28;20030;-89
2020/12/22 11:49:27;;;;;;;11.98;3.78;;;;;;;5.25;100.00;101234.50;5004866;28;20377;-89
2020/12/22 11:51:58;;;;;;;10.63;3.30;;;;;;;5.26;100.00;101228.38;5003346;28;20058;-89
2020/12/22 11:57:48;;;;;;;12.63;3.28;;;;;;;5.34;100.00;101219.16;5003039;28;20041;-89
2020/12/22 12:00:16;;;;;;;7.13;2.85;;;;;;;5.38;100.00;101212.88;5005813;28;20034;-90
2020/12/22 12:02:45;;;;;;;7.43;2.85;;;;;;;5.43;100.00;101209.97;5003321;28;20450;-91
2020/12/22 12:05:11;;;;;;;8.35;3.00;;;;;;;5.44;100.00;101211.63;5001568;28;20026;-91